sensor_id;sensor_type;location;lat;lon;timestamp;P1;durP1;ratioP1;P2;durP2;ratioP2
72649;SDS011;61467;50.674;4.618;2023-06-22T00:01:34;10.15;;;4.78;;
72649;SDS011;61467;50.674;4.618;2023-06-22T00:04:01;8.10;;;4.10;;
72649;SDS011;61467;50.674;4.618;2023-06-22T00:06:28;9.27;;;4.40;;
72649;SDS011;61467;50.674;4.618;2023-06-22T00:08:55;8.77;;;4.22;;
72649;SDS011;61467;50.674;4.618;2023-06-22T00:11:22;10.13;;;4.35;;
72649;SDS011;61467;50.674;4.618;2023-06-22T00:13:49;10.68;;;4.50;;
72649;SDS011;61467;50.674;4.618;2023-06-22T00:16:17;8.63;;;4.83;;
72649;SDS011;61467;50.674;4.618;2023-06-22T00:18:44;10.00;;;4.47;;
72649;SDS011;61467;50.674;4.618;2023-06-22T00:21:12;9.27;;;4.55;;
72649;SDS011;61467;50.674;4.618;2023-06-22T00:23:39;8.77;;;4.20;;
72649;SDS011;61467;50.674;4.618;2023-06-22T00:26:06;8.43;;;3.90;;
72649;SDS011;61467;50.674;4.618;2023-06-22T00:28:33;8.47;;;3.80;;
72649;SDS011;61467;50.674;4.618;2023-06-22T00:31:00;10.13;;;4.00;;
72649;SDS011;61467;50.674;4.618;2023-06-22T00:33:28;10.45;;;4.40;;
72649;SDS011;61467;50.674;4.618;2023-06-22T00:35:55;8.35;;;3.30;;
72649;SDS011;61467;50.674;4.618;2023-06-22T00:38:22;9.23;;;3.92;;
72649;SDS011;61467;50.674;4.618;2023-06-22T00:40:48;8.60;;;4.13;;
72649;SDS011;61467;50.674;4.618;2023-06-22T00:43:15;8.90;;;3.55;;
72649;SDS011;61467;50.674;4.618;2023-06-22T00:45:42;8.90;;;4.13;;
72649;SDS011;61467;50.674;4.618;2023-06-22T00:48:09;8.43;;;4.10;;
72649;SDS011;61467;50.674;4.618;2023-06-22T00:50:37;7.32;;;3.75;;
72649;SDS011;61467;50.674;4.618;2023-06-22T00:53:05;8.07;;;3.50;;
72649;SDS011;61467;50.674;4.618;2023-06-22T00:55:33;10.77;;;4.05;;
72649;SDS011;61467;50.674;4.618;2023-06-22T00:58:04;8.70;;;4.10;;
72649;SDS011;61467;50.674;4.618;2023-06-22T01:00:33;9.32;;;3.78;;
72649;SDS011;61467;50.674;4.618;2023-06-22T01:03:02;8.23;;;3.65;;
72649;SDS011;61467;50.674;4.618;2023-06-22T01:05:34;10.27;;;3.73;;
72649;SDS011;61467;50.674;4.618;2023-06-22T01:08:08;12.18;;;4.30;;
72649;SDS011;61467;50.674;4.618;2023-06-22T01:10:44;9.32;;;4.13;;
72649;SDS011;61467;50.674;4.618;2023-06-22T01:13:19;9.38;;;4.30;;
72649;SDS011;61467;50.674;4.618;2023-06-22T01:15:53;8.63;;;3.80;;
72649;SDS011;61467;50.674;4.618;2023-06-22T01:18:26;8.60;;;4.27;;
72649;SDS011;61467;50.674;4.618;2023-06-22T01:21:01;11.27;;;4.15;;
72649;SDS011;61467;50.674;4.618;2023-06-22T01:23:36;8.35;;;4.10;;
72649;SDS011;61467;50.674;4.618;2023-06-22T01:26:13;8.65;;;4.03;;
72649;SDS011;61467;50.674;4.618;2023-06-22T01:28:46;8.57;;;3.88;;
72649;SDS011;61467;50.674;4.618;2023-06-22T01:31:16;9.60;;;4.57;;
72649;SDS011;61467;50.674;4.618;2023-06-22T01:33:45;8.63;;;3.72;;
72649;SDS011;61467;50.674;4.618;2023-06-22T01:36:16;9.60;;;3.85;;
72649;SDS011;61467;50.674;4.618;2023-06-22T01:38:43;8.90;;;3.75;;
72649;SDS011;61467;50.674;4.618;2023-06-22T01:41:11;8.85;;;3.83;;
72649;SDS011;61467;50.674;4.618;2023-06-22T01:43:39;10.30;;;4.30;;
72649;SDS011;61467;50.674;4.618;2023-06-22T01:46:08;8.98;;;3.92;;
72649;SDS011;61467;50.674;4.618;2023-06-22T01:48:36;8.30;;;3.55;;
72649;SDS011;61467;50.674;4.618;2023-06-22T01:51:03;9.07;;;3.35;;
72649;SDS011;61467;50.674;4.618;2023-06-22T01:53:30;9.07;;;3.72;;
72649;SDS011;61467;50.674;4.618;2023-06-22T01:55:57;7.23;;;3.57;;
72649;SDS011;61467;50.674;4.618;2023-06-22T01:58:25;7.93;;;3.67;;
72649;SDS011;61467;50.674;4.618;2023-06-22T02:00:55;10.98;;;3.80;;
72649;SDS011;61467;50.674;4.618;2023-06-22T02:03:29;9.70;;;3.20;;
72649;SDS011;61467;50.674;4.618;2023-06-22T02:06:01;7.70;;;3.42;;
72649;SDS011;61467;50.674;4.618;2023-06-22T02:08:32;7.87;;;3.30;;
72649;SDS011;61467;50.674;4.618;2023-06-22T02:11:06;9.02;;;3.70;;
72649;SDS011;61467;50.674;4.618;2023-06-22T02:13:34;9.35;;;3.55;;
72649;SDS011;61467;50.674;4.618;2023-06-22T02:16:03;7.78;;;3.22;;
72649;SDS011;61467;50.674;4.618;2023-06-22T02:18:31;8.05;;;3.72;;
72649;SDS011;61467;50.674;4.618;2023-06-22T02:21:00;9.63;;;3.63;;
72649;SDS011;61467;50.674;4.618;2023-06-22T02:23:27;8.05;;;3.60;;
72649;SDS011;61467;50.674;4.618;2023-06-22T02:25:54;7.07;;;3.20;;
72649;SDS011;61467;50.674;4.618;2023-06-22T02:28:21;8.02;;;3.35;;
72649;SDS011;61467;50.674;4.618;2023-06-22T02:30:48;8.18;;;3.33;;
72649;SDS011;61467;50.674;4.618;2023-06-22T02:33:14;7.77;;;3.80;;
72649;SDS011;61467;50.674;4.618;2023-06-22T02:35:42;7.88;;;3.65;;
72649;SDS011;61467;50.674;4.618;2023-06-22T02:38:14;8.35;;;3.13;;
72649;SDS011;61467;50.674;4.618;2023-06-22T02:40:42;7.55;;;3.15;;
72649;SDS011;61467;50.674;4.618;2023-06-22T02:43:09;7.60;;;3.22;;
72649;SDS011;61467;50.674;4.618;2023-06-22T02:45:37;7.30;;;3.27;;
72649;SDS011;61467;50.674;4.618;2023-06-22T02:48:04;8.43;;;2.97;;
72649;SDS011;61467;50.674;4.618;2023-06-22T02:50:32;7.25;;;3.05;;
72649;SDS011;61467;50.674;4.618;2023-06-22T02:53:00;9.60;;;3.90;;
72649;SDS011;61467;50.674;4.618;2023-06-22T02:55:27;7.68;;;3.28;;
72649;SDS011;61467;50.674;4.618;2023-06-22T02:57:54;10.20;;;3.63;;
72649;SDS011;61467;50.674;4.618;2023-06-22T03:00:22;6.75;;;2.90;;
72649;SDS011;61467;50.674;4.618;2023-06-22T03:02:55;7.93;;;3.30;;
72649;SDS011;61467;50.674;4.618;2023-06-22T03:05:22;8.00;;;3.30;;
72649;SDS011;61467;50.674;4.618;2023-06-22T03:07:49;6.93;;;3.20;;
72649;SDS011;61467;50.674;4.618;2023-06-22T03:10:18;8.77;;;3.80;;
72649;SDS011;61467;50.674;4.618;2023-06-22T03:12:44;8.02;;;3.08;;
72649;SDS011;61467;50.674;4.618;2023-06-22T03:15:12;7.20;;;3.20;;
72649;SDS011;61467;50.674;4.618;2023-06-22T03:17:40;8.93;;;4.00;;
72649;SDS011;61467;50.674;4.618;2023-06-22T03:20:07;7.63;;;3.25;;
72649;SDS011;61467;50.674;4.618;2023-06-22T03:22:36;8.60;;;3.37;;
72649;SDS011;61467;50.674;4.618;2023-06-22T03:25:04;9.05;;;3.30;;
72649;SDS011;61467;50.674;4.618;2023-06-22T03:27:36;9.02;;;3.10;;
72649;SDS011;61467;50.674;4.618;2023-06-22T03:30:04;8.20;;;3.47;;
72649;SDS011;61467;50.674;4.618;2023-06-22T03:32:31;7.55;;;3.58;;
72649;SDS011;61467;50.674;4.618;2023-06-22T03:34:58;9.03;;;3.63;;
72649;SDS011;61467;50.674;4.618;2023-06-22T03:37:25;8.23;;;4.13;;
72649;SDS011;61467;50.674;4.618;2023-06-22T03:39:52;7.05;;;3.10;;
72649;SDS011;61467;50.674;4.618;2023-06-22T03:42:19;8.18;;;3.35;;
72649;SDS011;61467;50.674;4.618;2023-06-22T03:44:47;7.97;;;3.20;;
72649;SDS011;61467;50.674;4.618;2023-06-22T03:47:14;7.97;;;3.53;;
72649;SDS011;61467;50.674;4.618;2023-06-22T03:49:41;7.72;;;3.60;;
72649;SDS011;61467;50.674;4.618;2023-06-22T03:52:08;8.57;;;3.70;;
72649;SDS011;61467;50.674;4.618;2023-06-22T03:54:36;8.48;;;3.70;;
72649;SDS011;61467;50.674;4.618;2023-06-22T03:57:03;8.77;;;3.60;;
72649;SDS011;61467;50.674;4.618;2023-06-22T03:59:30;7.97;;;3.70;;
72649;SDS011;61467;50.674;4.618;2023-06-22T04:01:58;8.30;;;3.20;;
72649;SDS011;61467;50.674;4.618;2023-06-22T04:04:25;7.70;;;3.78;;
72649;SDS011;61467;50.674;4.618;2023-06-22T04:06:52;9.60;;;3.88;;
72649;SDS011;61467;50.674;4.618;2023-06-22T04:09:21;9.60;;;3.67;;
72649;SDS011;61467;50.674;4.618;2023-06-22T04:11:48;8.27;;;3.87;;
72649;SDS011;61467;50.674;4.618;2023-06-22T04:14:14;8.27;;;3.60;;
72649;SDS011;61467;50.674;4.618;2023-06-22T04:16:41;8.50;;;4.25;;
72649;SDS011;61467;50.674;4.618;2023-06-22T04:19:09;8.95;;;3.67;;
72649;SDS011;61467;50.674;4.618;2023-06-22T04:21:42;8.63;;;3.63;;
72649;SDS011;61467;50.674;4.618;2023-06-22T04:24:09;8.73;;;3.70;;
72649;SDS011;61467;50.674;4.618;2023-06-22T04:26:36;8.80;;;3.80;;
72649;SDS011;61467;50.674;4.618;2023-06-22T04:29:06;9.15;;;3.90;;
72649;SDS011;61467;50.674;4.618;2023-06-22T04:31:33;8.75;;;3.70;;
72649;SDS011;61467;50.674;4.618;2023-06-22T04:34:02;8.88;;;3.88;;
72649;SDS011;61467;50.674;4.618;2023-06-22T04:36:33;9.03;;;3.87;;
72649;SDS011;61467;50.674;4.618;2023-06-22T04:39:05;8.43;;;3.67;;
72649;SDS011;61467;50.674;4.618;2023-06-22T04:41:34;8.68;;;3.90;;
72649;SDS011;61467;50.674;4.618;2023-06-22T04:44:11;9.40;;;4.30;;
72649;SDS011;61467;50.674;4.618;2023-06-22T04:46:38;7.60;;;3.88;;
72649;SDS011;61467;50.674;4.618;2023-06-22T04:49:05;14.50;;;3.90;;
72649;SDS011;61467;50.674;4.618;2023-06-22T04:51:40;8.73;;;3.85;;
72649;SDS011;61467;50.674;4.618;2023-06-22T04:54:08;10.80;;;4.05;;
72649;SDS011;61467;50.674;4.618;2023-06-22T04:56:35;9.45;;;3.60;;
72649;SDS011;61467;50.674;4.618;2023-06-22T04:59:03;10.40;;;3.80;;
72649;SDS011;61467;50.674;4.618;2023-06-22T05:01:31;8.47;;;3.60;;
72649;SDS011;61467;50.674;4.618;2023-06-22T05:03:57;8.60;;;3.90;;
72649;SDS011;61467;50.674;4.618;2023-06-22T05:06:26;8.98;;;3.38;;
72649;SDS011;61467;50.674;4.618;2023-06-22T05:08:56;10.43;;;4.00;;
72649;SDS011;61467;50.674;4.618;2023-06-22T05:11:24;10.43;;;3.97;;
72649;SDS011;61467;50.674;4.618;2023-06-22T05:13:51;8.73;;;3.73;;
72649;SDS011;61467;50.674;4.618;2023-06-22T05:16:19;9.10;;;4.45;;
72649;SDS011;61467;50.674;4.618;2023-06-22T05:18:49;11.18;;;4.82;;
72649;SDS011;61467;50.674;4.618;2023-06-22T05:21:17;10.82;;;4.97;;
72649;SDS011;61467;50.674;4.618;2023-06-22T05:23:44;10.68;;;5.20;;
72649;SDS011;61467;50.674;4.618;2023-06-22T05:26:12;10.90;;;5.10;;
72649;SDS011;61467;50.674;4.618;2023-06-22T05:28:39;11.10;;;5.80;;
72649;SDS011;61467;50.674;4.618;2023-06-22T05:31:06;11.30;;;5.60;;
72649;SDS011;61467;50.674;4.618;2023-06-22T05:33:33;11.15;;;5.28;;
72649;SDS011;61467;50.674;4.618;2023-06-22T05:36:00;11.75;;;5.45;;
72649;SDS011;61467;50.674;4.618;2023-06-22T05:38:27;13.03;;;5.20;;
72649;SDS011;61467;50.674;4.618;2023-06-22T05:40:54;9.98;;;4.85;;
72649;SDS011;61467;50.674;4.618;2023-06-22T05:43:22;8.60;;;4.82;;
72649;SDS011;61467;50.674;4.618;2023-06-22T05:45:49;11.18;;;5.38;;
72649;SDS011;61467;50.674;4.618;2023-06-22T05:48:16;9.88;;;5.18;;
72649;SDS011;61467;50.674;4.618;2023-06-22T05:50:43;12.20;;;5.30;;
72649;SDS011;61467;50.674;4.618;2023-06-22T05:53:10;12.35;;;5.70;;
72649;SDS011;61467;50.674;4.618;2023-06-22T05:55:36;9.43;;;4.38;;
72649;SDS011;61467;50.674;4.618;2023-06-22T05:58:03;11.13;;;6.20;;
72649;SDS011;61467;50.674;4.618;2023-06-22T06:00:31;12.63;;;5.45;;
72649;SDS011;61467;50.674;4.618;2023-06-22T06:02:58;9.83;;;4.70;;
72649;SDS011;61467;50.674;4.618;2023-06-22T06:05:28;10.85;;;5.57;;
72649;SDS011;61467;50.674;4.618;2023-06-22T06:07:55;11.43;;;6.05;;
72649;SDS011;61467;50.674;4.618;2023-06-22T06:10:22;13.05;;;6.80;;
72649;SDS011;61467;50.674;4.618;2023-06-22T06:12:49;11.65;;;4.80;;
72649;SDS011;61467;50.674;4.618;2023-06-22T06:15:15;12.60;;;6.07;;
72649;SDS011;61467;50.674;4.618;2023-06-22T06:17:47;10.50;;;5.20;;
72649;SDS011;61467;50.674;4.618;2023-06-22T06:20:14;9.60;;;4.80;;
72649;SDS011;61467;50.674;4.618;2023-06-22T06:22:41;11.07;;;6.25;;
72649;SDS011;61467;50.674;4.618;2023-06-22T06:25:09;11.80;;;6.30;;
72649;SDS011;61467;50.674;4.618;2023-06-22T06:27:41;10.33;;;4.83;;
72649;SDS011;61467;50.674;4.618;2023-06-22T06:30:08;12.15;;;6.22;;
72649;SDS011;61467;50.674;4.618;2023-06-22T06:32:36;13.13;;;6.82;;
72649;SDS011;61467;50.674;4.618;2023-06-22T06:35:06;11.55;;;5.68;;
72649;SDS011;61467;50.674;4.618;2023-06-22T06:37:35;14.75;;;7.40;;
72649;SDS011;61467;50.674;4.618;2023-06-22T06:40:04;13.30;;;7.40;;
72649;SDS011;61467;50.674;4.618;2023-06-22T06:42:33;13.48;;;7.38;;
72649;SDS011;61467;50.674;4.618;2023-06-22T06:45:00;15.23;;;7.60;;
72649;SDS011;61467;50.674;4.618;2023-06-22T06:47:26;12.88;;;7.22;;
72649;SDS011;61467;50.674;4.618;2023-06-22T06:49:53;14.80;;;7.50;;
72649;SDS011;61467;50.674;4.618;2023-06-22T06:52:21;14.20;;;7.90;;
72649;SDS011;61467;50.674;4.618;2023-06-22T06:54:48;13.10;;;7.85;;
72649;SDS011;61467;50.674;4.618;2023-06-22T06:57:16;14.70;;;7.75;;
72649;SDS011;61467;50.674;4.618;2023-06-22T06:59:43;14.95;;;7.38;;
72649;SDS011;61467;50.674;4.618;2023-06-22T07:02:10;12.52;;;7.30;;
72649;SDS011;61467;50.674;4.618;2023-06-22T07:04:37;14.83;;;8.47;;
72649;SDS011;61467;50.674;4.618;2023-06-22T07:07:04;14.52;;;7.80;;
72649;SDS011;61467;50.674;4.618;2023-06-22T07:09:32;16.83;;;8.40;;
72649;SDS011;61467;50.674;4.618;2023-06-22T07:11:59;13.90;;;7.32;;
72649;SDS011;61467;50.674;4.618;2023-06-22T07:14:26;14.80;;;7.75;;
72649;SDS011;61467;50.674;4.618;2023-06-22T07:16:53;12.27;;;7.10;;
72649;SDS011;61467;50.674;4.618;2023-06-22T07:19:24;12.68;;;6.88;;
72649;SDS011;61467;50.674;4.618;2023-06-22T07:21:52;14.25;;;8.57;;
72649;SDS011;61467;50.674;4.618;2023-06-22T07:24:19;13.45;;;8.40;;
72649;SDS011;61467;50.674;4.618;2023-06-22T07:26:47;17.23;;;9.13;;
72649;SDS011;61467;50.674;4.618;2023-06-22T07:29:15;14.70;;;7.87;;
72649;SDS011;61467;50.674;4.618;2023-06-22T07:31:42;14.73;;;8.48;;
72649;SDS011;61467;50.674;4.618;2023-06-22T07:34:10;15.77;;;8.75;;
72649;SDS011;61467;50.674;4.618;2023-06-22T07:36:37;12.63;;;6.95;;
72649;SDS011;61467;50.674;4.618;2023-06-22T07:39:04;12.75;;;7.35;;
72649;SDS011;61467;50.674;4.618;2023-06-22T07:41:32;13.37;;;6.70;;
72649;SDS011;61467;50.674;4.618;2023-06-22T07:44:01;15.32;;;7.82;;
72649;SDS011;61467;50.674;4.618;2023-06-22T07:46:28;14.57;;;7.78;;
72649;SDS011;61467;50.674;4.618;2023-06-22T07:48:56;15.65;;;8.27;;
72649;SDS011;61467;50.674;4.618;2023-06-22T07:51:23;14.18;;;7.10;;
72649;SDS011;61467;50.674;4.618;2023-06-22T07:53:50;12.90;;;6.90;;
72649;SDS011;61467;50.674;4.618;2023-06-22T07:56:18;13.82;;;6.32;;
72649;SDS011;61467;50.674;4.618;2023-06-22T07:58:45;13.43;;;6.60;;
72649;SDS011;61467;50.674;4.618;2023-06-22T08:01:16;12.73;;;5.60;;
72649;SDS011;61467;50.674;4.618;2023-06-22T08:03:46;13.23;;;7.15;;
72649;SDS011;61467;50.674;4.618;2023-06-22T08:06:14;12.07;;;5.70;;
72649;SDS011;61467;50.674;4.618;2023-06-22T08:08:42;10.98;;;5.53;;
72649;SDS011;61467;50.674;4.618;2023-06-22T08:11:13;14.50;;;6.90;;
72649;SDS011;61467;50.674;4.618;2023-06-22T08:13:40;11.93;;;6.10;;
72649;SDS011;61467;50.674;4.618;2023-06-22T08:16:07;12.50;;;6.57;;
72649;SDS011;61467;50.674;4.618;2023-06-22T08:18:35;13.30;;;6.40;;
72649;SDS011;61467;50.674;4.618;2023-06-22T08:21:02;12.15;;;6.97;;
72649;SDS011;61467;50.674;4.618;2023-06-22T08:23:29;14.68;;;6.75;;
72649;SDS011;61467;50.674;4.618;2023-06-22T08:25:56;13.05;;;6.65;;
72649;SDS011;61467;50.674;4.618;2023-06-22T08:28:23;12.77;;;6.22;;
72649;SDS011;61467;50.674;4.618;2023-06-22T08:30:50;14.20;;;5.40;;
72649;SDS011;61467;50.674;4.618;2023-06-22T08:33:16;11.85;;;5.85;;
72649;SDS011;61467;50.674;4.618;2023-06-22T08:35:45;11.40;;;6.60;;
72649;SDS011;61467;50.674;4.618;2023-06-22T08:38:12;10.25;;;5.78;;
72649;SDS011;61467;50.674;4.618;2023-06-22T08:40:43;15.13;;;6.15;;
72649;SDS011;61467;50.674;4.618;2023-06-22T08:43:10;11.50;;;6.03;;
72649;SDS011;61467;50.674;4.618;2023-06-22T08:45:37;15.03;;;6.63;;
72649;SDS011;61467;50.674;4.618;2023-06-22T08:48:04;17.67;;;7.50;;
72649;SDS011;61467;50.674;4.618;2023-06-22T08:50:32;13.20;;;6.50;;
72649;SDS011;61467;50.674;4.618;2023-06-22T08:53:00;12.85;;;6.78;;
72649;SDS011;61467;50.674;4.618;2023-06-22T08:55:27;13.20;;;6.55;;
72649;SDS011;61467;50.674;4.618;2023-06-22T08:57:53;10.67;;;5.50;;
72649;SDS011;61467;50.674;4.618;2023-06-22T09:00:20;16.30;;;7.32;;
72649;SDS011;61467;50.674;4.618;2023-06-22T09:02:47;13.63;;;7.07;;
72649;SDS011;61467;50.674;4.618;2023-06-22T09:05:14;10.57;;;5.80;;
72649;SDS011;61467;50.674;4.618;2023-06-22T09:07:42;12.30;;;7.28;;
72649;SDS011;61467;50.674;4.618;2023-06-22T09:10:11;12.30;;;5.70;;
72649;SDS011;61467;50.674;4.618;2023-06-22T09:12:38;11.20;;;5.38;;
72649;SDS011;61467;50.674;4.618;2023-06-22T09:15:06;11.88;;;6.40;;
72649;SDS011;61467;50.674;4.618;2023-06-22T09:17:33;12.68;;;6.10;;
72649;SDS011;61467;50.674;4.618;2023-06-22T09:20:02;12.32;;;7.45;;
72649;SDS011;61467;50.674;4.618;2023-06-22T09:22:30;12.97;;;7.57;;
72649;SDS011;61467;50.674;4.618;2023-06-22T09:24:57;13.32;;;7.15;;
72649;SDS011;61467;50.674;4.618;2023-06-22T09:27:26;11.55;;;7.45;;
72649;SDS011;61467;50.674;4.618;2023-06-22T09:29:53;14.05;;;8.05;;
72649;SDS011;61467;50.674;4.618;2023-06-22T09:32:19;14.65;;;8.48;;
72649;SDS011;61467;50.674;4.618;2023-06-22T09:34:46;14.33;;;8.23;;
72649;SDS011;61467;50.674;4.618;2023-06-22T09:37:13;15.20;;;8.30;;
72649;SDS011;61467;50.674;4.618;2023-06-22T09:39:40;13.35;;;8.00;;
72649;SDS011;61467;50.674;4.618;2023-06-22T09:42:07;14.43;;;8.82;;
72649;SDS011;61467;50.674;4.618;2023-06-22T09:44:35;16.17;;;8.82;;
72649;SDS011;61467;50.674;4.618;2023-06-22T09:47:02;15.83;;;9.30;;
72649;SDS011;61467;50.674;4.618;2023-06-22T09:49:29;14.43;;;8.80;;
72649;SDS011;61467;50.674;4.618;2023-06-22T09:51:57;16.40;;;8.80;;
72649;SDS011;61467;50.674;4.618;2023-06-22T09:54:24;16.33;;;9.60;;
72649;SDS011;61467;50.674;4.618;2023-06-22T09:56:50;17.42;;;9.25;;
72649;SDS011;61467;50.674;4.618;2023-06-22T09:59:17;16.63;;;9.23;;
72649;SDS011;61467;50.674;4.618;2023-06-22T10:01:45;14.20;;;8.00;;
72649;SDS011;61467;50.674;4.618;2023-06-22T10:04:12;10.55;;;5.82;;
72649;SDS011;61467;50.674;4.618;2023-06-22T10:06:39;13.55;;;8.00;;
72649;SDS011;61467;50.674;4.618;2023-06-22T10:09:06;15.90;;;8.18;;
72649;SDS011;61467;50.674;4.618;2023-06-22T10:11:34;13.93;;;8.13;;
72649;SDS011;61467;50.674;4.618;2023-06-22T10:14:02;13.25;;;7.43;;
72649;SDS011;61467;50.674;4.618;2023-06-22T10:16:32;12.15;;;6.47;;
72649;SDS011;61467;50.674;4.618;2023-06-22T10:19:02;13.77;;;7.93;;
72649;SDS011;61467;50.674;4.618;2023-06-22T10:21:28;14.35;;;8.45;;
72649;SDS011;61467;50.674;4.618;2023-06-22T10:23:55;15.87;;;9.00;;
72649;SDS011;61467;50.674;4.618;2023-06-22T10:26:22;12.98;;;8.32;;
72649;SDS011;61467;50.674;4.618;2023-06-22T10:28:49;14.63;;;8.35;;
72649;SDS011;61467;50.674;4.618;2023-06-22T10:31:16;14.63;;;8.95;;
72649;SDS011;61467;50.674;4.618;2023-06-22T10:33:43;15.40;;;8.85;;
72649;SDS011;61467;50.674;4.618;2023-06-22T10:36:11;15.13;;;8.70;;
72649;SDS011;61467;50.674;4.618;2023-06-22T10:38:38;17.33;;;9.07;;
72649;SDS011;61467;50.674;4.618;2023-06-22T10:41:05;13.93;;;8.70;;
72649;SDS011;61467;50.674;4.618;2023-06-22T10:43:32;16.15;;;8.85;;
72649;SDS011;61467;50.674;4.618;2023-06-22T10:45:59;16.08;;;9.27;;
72649;SDS011;61467;50.674;4.618;2023-06-22T10:48:25;16.70;;;10.07;;
72649;SDS011;61467;50.674;4.618;2023-06-22T10:50:52;15.43;;;10.02;;
72649;SDS011;61467;50.674;4.618;2023-06-22T10:53:21;16.80;;;10.48;;
72649;SDS011;61467;50.674;4.618;2023-06-22T10:55:48;16.38;;;8.80;;
72649;SDS011;61467;50.674;4.618;2023-06-22T10:58:16;14.90;;;9.18;;
72649;SDS011;61467;50.674;4.618;2023-06-22T11:00:43;13.70;;;8.27;;
72649;SDS011;61467;50.674;4.618;2023-06-22T11:03:10;16.58;;;10.30;;
72649;SDS011;61467;50.674;4.618;2023-06-22T11:05:39;13.40;;;8.98;;
72649;SDS011;61467;50.674;4.618;2023-06-22T11:08:06;15.98;;;9.77;;
72649;SDS011;61467;50.674;4.618;2023-06-22T11:10:34;16.70;;;9.98;;
72649;SDS011;61467;50.674;4.618;2023-06-22T11:13:01;15.87;;;10.90;;
72649;SDS011;61467;50.674;4.618;2023-06-22T11:15:29;15.20;;;8.70;;
72649;SDS011;61467;50.674;4.618;2023-06-22T11:17:56;17.00;;;10.30;;
72649;SDS011;61467;50.674;4.618;2023-06-22T11:20:22;16.52;;;9.73;;
72649;SDS011;61467;50.674;4.618;2023-06-22T11:22:49;17.98;;;10.02;;
72649;SDS011;61467;50.674;4.618;2023-06-22T11:25:16;16.00;;;10.13;;
72649;SDS011;61467;50.674;4.618;2023-06-22T11:27:45;19.00;;;12.57;;
72649;SDS011;61467;50.674;4.618;2023-06-22T11:30:11;15.27;;;10.27;;
72649;SDS011;61467;50.674;4.618;2023-06-22T11:32:38;21.33;;;13.05;;
72649;SDS011;61467;50.674;4.618;2023-06-22T11:35:05;22.02;;;13.82;;
72649;SDS011;61467;50.674;4.618;2023-06-22T11:37:32;18.30;;;11.67;;
72649;SDS011;61467;50.674;4.618;2023-06-22T11:39:59;20.23;;;13.98;;
72649;SDS011;61467;50.674;4.618;2023-06-22T11:42:28;18.50;;;12.05;;
72649;SDS011;61467;50.674;4.618;2023-06-22T11:44:56;21.88;;;13.98;;
72649;SDS011;61467;50.674;4.618;2023-06-22T11:47:23;21.02;;;12.80;;
72649;SDS011;61467;50.674;4.618;2023-06-22T11:49:49;19.17;;;13.23;;
72649;SDS011;61467;50.674;4.618;2023-06-22T11:52:16;18.08;;;10.60;;
72649;SDS011;61467;50.674;4.618;2023-06-22T11:54:44;18.08;;;11.55;;
72649;SDS011;61467;50.674;4.618;2023-06-22T11:57:12;21.52;;;11.80;;
72649;SDS011;61467;50.674;4.618;2023-06-22T11:59:38;19.83;;;12.93;;
72649;SDS011;61467;50.674;4.618;2023-06-22T12:02:07;16.97;;;11.00;;
72649;SDS011;61467;50.674;4.618;2023-06-22T12:04:34;20.25;;;12.57;;
72649;SDS011;61467;50.674;4.618;2023-06-22T12:07:01;22.55;;;13.27;;
72649;SDS011;61467;50.674;4.618;2023-06-22T12:09:28;17.30;;;11.50;;
72649;SDS011;61467;50.674;4.618;2023-06-22T12:11:55;21.92;;;13.23;;
72649;SDS011;61467;50.674;4.618;2023-06-22T12:14:22;25.30;;;14.63;;
72649;SDS011;61467;50.674;4.618;2023-06-22T12:16:49;22.80;;;14.07;;
72649;SDS011;61467;50.674;4.618;2023-06-22T12:19:17;20.92;;;13.25;;
72649;SDS011;61467;50.674;4.618;2023-06-22T12:21:44;22.73;;;14.68;;
72649;SDS011;61467;50.674;4.618;2023-06-22T12:24:11;22.33;;;13.48;;
72649;SDS011;61467;50.674;4.618;2023-06-22T12:26:38;21.10;;;13.80;;
72649;SDS011;61467;50.674;4.618;2023-06-22T12:29:05;18.95;;;11.77;;
72649;SDS011;61467;50.674;4.618;2023-06-22T12:31:32;22.30;;;14.98;;
72649;SDS011;61467;50.674;4.618;2023-06-22T12:33:58;22.92;;;14.38;;
72649;SDS011;61467;50.674;4.618;2023-06-22T12:36:26;25.13;;;15.13;;
72649;SDS011;61467;50.674;4.618;2023-06-22T12:38:53;26.83;;;15.57;;
72649;SDS011;61467;50.674;4.618;2023-06-22T12:41:20;20.25;;;12.75;;
72649;SDS011;61467;50.674;4.618;2023-06-22T12:43:47;25.98;;;15.95;;
72649;SDS011;61467;50.674;4.618;2023-06-22T12:46:14;19.98;;;12.68;;
72649;SDS011;61467;50.674;4.618;2023-06-22T12:48:40;26.13;;;17.17;;
72649;SDS011;61467;50.674;4.618;2023-06-22T12:51:07;21.50;;;14.17;;
72649;SDS011;61467;50.674;4.618;2023-06-22T12:53:36;24.38;;;16.48;;
72649;SDS011;61467;50.674;4.618;2023-06-22T12:56:03;22.88;;;15.52;;
72649;SDS011;61467;50.674;4.618;2023-06-22T12:58:30;25.92;;;17.48;;
72649;SDS011;61467;50.674;4.618;2023-06-22T13:00:56;25.77;;;18.27;;
72649;SDS011;61467;50.674;4.618;2023-06-22T13:03:23;23.90;;;15.13;;
72649;SDS011;61467;50.674;4.618;2023-06-22T13:05:52;28.27;;;18.10;;
72649;SDS011;61467;50.674;4.618;2023-06-22T13:08:19;26.75;;;17.75;;
72649;SDS011;61467;50.674;4.618;2023-06-22T13:10:48;26.20;;;17.40;;
72649;SDS011;61467;50.674;4.618;2023-06-22T13:13:15;24.05;;;16.33;;
72649;SDS011;61467;50.674;4.618;2023-06-22T13:15:41;23.83;;;15.20;;
72649;SDS011;61467;50.674;4.618;2023-06-22T13:18:09;22.73;;;14.75;;
72649;SDS011;61467;50.674;4.618;2023-06-22T13:20:36;23.27;;;15.13;;
72649;SDS011;61467;50.674;4.618;2023-06-22T13:23:03;22.02;;;14.57;;
72649;SDS011;61467;50.674;4.618;2023-06-22T13:25:31;21.95;;;14.65;;
72649;SDS011;61467;50.674;4.618;2023-06-22T13:27:59;21.53;;;14.67;;
72649;SDS011;61467;50.674;4.618;2023-06-22T13:30:26;23.35;;;15.98;;
72649;SDS011;61467;50.674;4.618;2023-06-22T13:32:53;24.08;;;14.77;;
72649;SDS011;61467;50.674;4.618;2023-06-22T13:35:20;24.35;;;16.23;;
72649;SDS011;61467;50.674;4.618;2023-06-22T13:37:47;21.92;;;15.35;;
72649;SDS011;61467;50.674;4.618;2023-06-22T13:40:15;23.23;;;13.60;;
72649;SDS011;61467;50.674;4.618;2023-06-22T13:42:42;22.20;;;14.57;;
72649;SDS011;61467;50.674;4.618;2023-06-22T13:45:11;21.63;;;14.02;;
72649;SDS011;61467;50.674;4.618;2023-06-22T13:47:38;23.23;;;16.23;;
72649;SDS011;61467;50.674;4.618;2023-06-22T13:50:05;21.23;;;13.30;;
72649;SDS011;61467;50.674;4.618;2023-06-22T13:52:33;20.87;;;14.53;;
72649;SDS011;61467;50.674;4.618;2023-06-22T13:55:00;23.23;;;16.00;;
72649;SDS011;61467;50.674;4.618;2023-06-22T13:57:27;20.30;;;13.65;;
72649;SDS011;61467;50.674;4.618;2023-06-22T13:59:53;20.90;;;14.18;;
72649;SDS011;61467;50.674;4.618;2023-06-22T14:02:22;21.05;;;14.98;;
72649;SDS011;61467;50.674;4.618;2023-06-22T14:04:48;24.10;;;15.53;;
72649;SDS011;61467;50.674;4.618;2023-06-22T14:07:15;25.10;;;17.65;;
72649;SDS011;61467;50.674;4.618;2023-06-22T14:09:44;22.70;;;15.68;;
72649;SDS011;61467;50.674;4.618;2023-06-22T14:12:11;25.55;;;16.27;;
72649;SDS011;61467;50.674;4.618;2023-06-22T14:14:39;26.42;;;18.20;;
72649;SDS011;61467;50.674;4.618;2023-06-22T14:17:05;23.73;;;16.37;;
72649;SDS011;61467;50.674;4.618;2023-06-22T14:19:34;25.67;;;17.50;;
72649;SDS011;61467;50.674;4.618;2023-06-22T14:22:01;24.00;;;16.77;;
72649;SDS011;61467;50.674;4.618;2023-06-22T14:24:27;24.67;;;16.20;;
72649;SDS011;61467;50.674;4.618;2023-06-22T14:26:54;23.40;;;16.10;;
72649;SDS011;61467;50.674;4.618;2023-06-22T14:29:22;22.57;;;14.63;;
72649;SDS011;61467;50.674;4.618;2023-06-22T14:31:49;21.10;;;14.15;;
72649;SDS011;61467;50.674;4.618;2023-06-22T14:34:16;22.85;;;15.32;;
72649;SDS011;61467;50.674;4.618;2023-06-22T14:36:44;21.58;;;15.45;;
72649;SDS011;61467;50.674;4.618;2023-06-22T14:39:11;21.77;;;14.40;;